createdAt,value
2019-06-10T00:02:25.831Z,3.52
2019-06-10T00:04:52.282Z,2.80
2019-06-10T00:07:21.074Z,2.35
2019-06-10T00:09:47.353Z,5.03
2019-06-10T00:12:13.782Z,2.92
2019-06-10T00:14:41.897Z,2.95
2019-06-10T00:17:10.760Z,3.92
2019-06-10T00:19:36.316Z,1.75
2019-06-10T00:22:04.088Z,3.22
2019-06-10T00:24:31.507Z,1.92
2019-06-10T00:26:57.833Z,2.37
2019-06-10T00:29:24.151Z,5.10
2019-06-10T00:31:50.822Z,2.45
2019-06-10T00:34:17.996Z,4.58
2019-06-10T00:36:44.565Z,3.77
2019-06-10T00:39:13.358Z,3.98
2019-06-10T00:41:38.859Z,1.90
2019-06-10T00:44:05.644Z,2.52
2019-06-10T00:46:33.132Z,2.80
2019-06-10T00:49:01.574Z,1.87
2019-06-10T00:51:27.622Z,1.95
2019-06-10T00:53:53.718Z,1.95
2019-06-10T00:56:21.508Z,6.50
2019-06-10T00:58:47.908Z,3.67
2019-06-10T01:01:14.700Z,3.72
2019-06-10T01:03:41.485Z,3.40
2019-06-10T01:06:08.496Z,3.58
2019-06-10T01:08:34.965Z,3.85
2019-06-10T01:11:09.248Z,4.25
2019-06-10T01:13:30.942Z,2.87
2019-06-10T01:15:57.316Z,3.45
2019-06-10T01:18:34.690Z,3.30
2019-06-10T01:20:51.817Z,4.67
2019-06-10T01:23:18.123Z,2.40
2019-06-10T01:25:44.215Z,3.92
2019-06-10T01:28:13.373Z,2.95
2019-06-10T01:30:41.002Z,3.05
2019-06-10T01:33:06.471Z,3.77
2019-06-10T01:35:32.619Z,3.17
2019-06-10T01:38:00.942Z,3.92
2019-06-10T01:40:26.807Z,2.15
2019-06-10T01:42:53.035Z,3.35
2019-06-10T01:45:21.123Z,2.45
2019-06-10T01:47:47.122Z,3.25
2019-06-10T01:50:15.914Z,3.60
2019-06-10T01:52:41.361Z,1.92
2019-06-10T01:55:07.832Z,4.20
2019-06-10T01:57:34.085Z,4.58
2019-06-10T02:00:01.000Z,3.80
2019-06-10T02:02:28.359Z,2.30
2019-06-10T02:04:54.438Z,3.92
2019-06-10T02:07:22.980Z,3.15
2019-06-10T02:09:51.602Z,4.72
2019-06-10T02:12:19.173Z,2.60
2019-06-10T02:14:45.468Z,2.72
2019-06-10T02:17:13.088Z,2.90
2019-06-10T02:19:41.429Z,3.72
2019-06-10T02:22:07.651Z,2.55
2019-06-10T02:24:33.755Z,5.35
2019-06-10T02:27:01.091Z,2.58
2019-06-10T02:29:27.774Z,2.92
2019-06-10T02:31:53.964Z,2.25
2019-06-10T02:34:25.053Z,2.02
2019-06-10T02:36:48.049Z,2.65
2019-06-10T02:39:21.520Z,2.83
2019-06-10T02:41:44.599Z,3.02
2019-06-10T02:44:10.324Z,4.22
2019-06-10T02:46:36.707Z,2.87
2019-06-10T02:49:21.440Z,2.80
2019-06-10T02:51:35.449Z,4.03
2019-06-10T02:54:00.199Z,3.02
2019-06-10T02:56:30.741Z,2.40
2019-06-10T02:58:54.392Z,2.87
2019-06-10T03:01:23.256Z,3.33
2019-06-10T03:03:49.879Z,3.22
2019-06-10T03:06:17.951Z,2.27
2019-06-10T03:08:44.569Z,3.15
2019-06-10T03:11:13.754Z,3.15
2019-06-10T03:13:38.773Z,1.77
2019-06-10T03:16:10.039Z,2.52
2019-06-10T03:18:36.170Z,3.50
2019-06-10T03:21:04.490Z,4.03
2019-06-10T03:23:32.048Z,3.40
2019-06-10T03:26:00.384Z,1.98
2019-06-10T03:28:27.743Z,2.08
2019-06-10T03:30:58.812Z,2.83
2019-06-10T03:33:27.731Z,3.12
2019-06-10T03:35:52.664Z,2.65
2019-06-10T03:38:20.871Z,3.02
2019-06-10T03:40:48.739Z,1.90
2019-06-10T03:43:14.836Z,2.80
2019-06-10T03:45:42.586Z,2.00
2019-06-10T03:48:08.846Z,2.45
2019-06-10T03:50:34.956Z,2.37
2019-06-10T03:53:04.130Z,2.62
2019-06-10T03:55:29.154Z,3.35
2019-06-10T03:57:55.826Z,1.05
2019-06-10T04:00:24.446Z,1.37
2019-06-10T04:02:50.119Z,2.02
2019-06-10T04:05:17.357Z,2.52
2019-06-10T04:07:43.697Z,1.70
2019-06-10T04:10:12.583Z,1.05
2019-06-10T04:12:38.940Z,3.15
2019-06-10T04:15:07.224Z,1.87
2019-06-10T04:17:33.455Z,3.90
2019-06-10T04:20:11.174Z,2.90
2019-06-10T04:22:28.384Z,2.80
2019-06-10T04:24:54.769Z,1.60
2019-06-10T04:27:22.715Z,1.50
2019-06-10T04:29:48.833Z,2.08
2019-06-10T04:32:14.969Z,2.05
2019-06-10T04:34:43.308Z,2.12
2019-06-10T04:37:09.256Z,2.08
2019-06-10T04:39:35.365Z,2.75
2019-06-10T04:42:02.457Z,2.95
2019-06-10T04:44:29.476Z,0.90
2019-06-10T04:46:55.949Z,3.58
2019-06-10T04:49:25.085Z,5.45
2019-06-10T04:51:52.230Z,2.25
2019-06-10T04:54:18.793Z,2.37
2019-06-10T04:56:45.067Z,2.15
2019-06-10T04:59:12.557Z,2.15
2019-06-10T05:01:38.943Z,2.45
2019-06-10T05:04:05.027Z,2.50
2019-06-10T05:06:32.748Z,2.25
2019-06-10T05:08:59.106Z,2.62
2019-06-10T05:11:26.947Z,2.85
2019-06-10T05:13:53.421Z,1.35
2019-06-10T05:16:19.663Z,2.58
2019-06-10T05:18:45.995Z,1.90
2019-06-10T05:21:13.083Z,4.37
2019-06-10T05:23:39.655Z,4.42
2019-06-10T05:26:05.915Z,3.67
2019-06-10T05:28:34.261Z,2.95
2019-06-10T05:31:02.519Z,2.58
2019-06-10T05:33:28.620Z,1.47
2019-06-10T05:35:54.822Z,1.47
2019-06-10T05:38:23.452Z,2.85
2019-06-10T05:40:48.898Z,2.75
2019-06-10T05:43:15.003Z,2.50
2019-06-10T05:45:42.472Z,1.82
2019-06-10T05:48:08.879Z,2.02
2019-06-10T05:50:35.162Z,1.85
2019-06-10T05:53:02.455Z,2.55
2019-06-10T05:55:29.114Z,2.10
2019-06-10T05:57:55.280Z,2.58
2019-06-10T06:00:23.383Z,2.30
2019-06-10T06:02:52.114Z,1.77
2019-06-10T06:05:17.775Z,2.65
2019-06-10T06:07:58.943Z,2.42
2019-06-10T06:10:14.892Z,1.40
2019-06-10T06:12:42.499Z,0.95
2019-06-10T06:15:09.648Z,2.12
2019-06-10T06:17:35.728Z,2.00
2019-06-10T06:20:25.005Z,1.70
2019-06-10T06:22:52.270Z,2.25
2019-06-10T06:25:18.933Z,2.02
2019-06-10T06:27:45.024Z,2.67
2019-06-10T06:30:17.748Z,2.20
2019-06-10T06:32:39.927Z,4.05
2019-06-10T06:35:06.504Z,3.12
2019-06-10T06:37:35.731Z,2.02
2019-06-10T06:40:02.836Z,1.77
2019-06-10T06:42:29.389Z,1.90
2019-06-10T06:44:55.540Z,0.70
2019-06-10T06:47:22.603Z,2.47
2019-06-10T06:49:48.958Z,1.70
2019-06-10T06:52:15.211Z,3.08
2019-06-10T06:54:42.444Z,2.77
2019-06-10T06:57:08.962Z,1.55
2019-06-10T06:59:36.916Z,1.70
2019-06-10T07:02:05.123Z,2.55
2019-06-10T07:04:33.920Z,3.22
2019-06-10T07:07:02.555Z,2.58
2019-06-10T07:09:33.072Z,1.80
2019-06-10T07:12:04.482Z,2.92
2019-06-10T07:14:35.252Z,1.57
2019-06-10T07:16:59.514Z,1.77
2019-06-10T07:19:25.726Z,4.17
2019-06-10T07:22:08.708Z,1.72
2019-06-10T07:24:20.120Z,3.87
2019-06-10T07:26:52.131Z,3.60
2019-06-10T07:29:14.915Z,2.65
2019-06-10T07:31:44.180Z,2.15
2019-06-10T07:34:09.039Z,3.45
2019-06-10T07:36:35.611Z,3.98
2019-06-10T07:39:05.765Z,2.85
2019-06-10T07:41:32.823Z,2.27
2019-06-10T07:43:59.934Z,4.08
2019-06-10T07:46:26.130Z,3.58
2019-06-10T07:48:56.215Z,4.33
2019-06-10T07:51:22.604Z,2.62
2019-06-10T07:53:48.491Z,1.87
2019-06-10T07:56:14.779Z,4.17
2019-06-10T07:58:44.516Z,1.72
2019-06-10T08:01:09.015Z,2.08
2019-06-10T08:03:36.533Z,2.22
2019-06-10T08:06:03.593Z,1.65
2019-06-10T08:08:29.765Z,2.47
2019-06-10T08:10:55.867Z,3.00
2019-06-10T08:13:22.662Z,2.80
2019-06-10T08:15:49.157Z,3.05
2019-06-10T08:18:15.659Z,2.37
2019-06-10T08:20:45.379Z,2.05
2019-06-10T08:23:15.835Z,3.92
2019-06-10T08:25:45.538Z,3.22
2019-06-10T08:28:13.231Z,2.40
2019-06-10T08:30:39.741Z,2.75
2019-06-10T08:33:06.698Z,1.57
2019-06-10T08:35:41.912Z,2.92
2019-06-10T08:38:02.458Z,2.12
2019-06-10T08:40:28.771Z,3.90
2019-06-10T08:42:54.910Z,2.62
2019-06-10T08:45:22.757Z,2.15
2019-06-10T08:47:49.211Z,2.02
2019-06-10T08:50:15.673Z,1.75
2019-06-10T08:52:56.052Z,1.25
2019-06-10T08:55:12.399Z,2.52
2019-06-10T08:57:39.811Z,3.22
2019-06-10T09:00:14.699Z,3.17
2019-06-10T09:02:35.842Z,4.90
2019-06-10T09:05:03.746Z,4.58
2019-06-10T09:07:32.177Z,2.47
2019-06-10T09:09:58.040Z,2.47
2019-06-10T09:12:32.951Z,3.00
2019-06-10T09:14:53.137Z,1.98
2019-06-10T09:17:19.455Z,4.65
2019-06-10T09:19:48.811Z,3.92
2019-06-10T09:22:13.676Z,1.52
2019-06-10T09:24:40.871Z,2.65
2019-06-10T09:27:07.790Z,3.58
2019-06-10T09:29:33.890Z,3.40
2019-06-10T09:32:02.024Z,1.57
2019-06-10T09:34:27.967Z,4.03
2019-06-10T09:36:56.805Z,2.98
2019-06-10T09:39:23.026Z,2.12
2019-06-10T09:41:57.730Z,2.12
2019-06-10T09:44:17.571Z,1.85
2019-06-10T09:46:49.398Z,4.25
2019-06-10T09:49:15.766Z,1.95
2019-06-10T09:51:45.847Z,4.87
2019-06-10T09:54:12.608Z,2.90
2019-06-10T09:56:37.887Z,2.22
2019-06-10T09:59:04.163Z,2.40
2019-06-10T10:01:32.695Z,9.50
2019-06-10T10:04:00.510Z,2.37
2019-06-10T10:06:26.976Z,1.60
2019-06-10T10:08:58.069Z,3.98
2019-06-10T10:11:23.516Z,2.33
2019-06-10T10:13:49.869Z,2.58
2019-06-10T10:16:17.239Z,2.25
2019-06-10T10:18:47.310Z,2.00
2019-06-10T10:21:13.075Z,2.45
2019-06-10T10:23:51.290Z,4.28
2019-06-10T10:26:07.635Z,5.85
2019-06-10T10:28:33.760Z,3.90
2019-06-10T10:31:00.008Z,1.62
2019-06-10T10:33:29.898Z,2.47
2019-06-10T10:35:54.179Z,3.17
2019-06-10T10:38:22.686Z,2.20
2019-06-10T10:40:50.609Z,3.20
2019-06-10T10:43:25.171Z,2.67
2019-06-10T10:45:47.472Z,1.75
2019-06-10T10:48:14.078Z,2.80
2019-06-10T10:50:40.403Z,3.15
2019-06-10T10:53:06.501Z,3.33
2019-06-10T10:55:33.429Z,3.25
2019-06-10T10:57:59.586Z,3.45
2019-06-10T11:00:36.484Z,4.15
2019-06-10T11:02:57.456Z,3.12
2019-06-10T11:05:33.275Z,4.15
2019-06-10T11:07:59.775Z,5.65
2019-06-10T11:10:26.655Z,3.02
2019-06-10T11:12:54.120Z,3.47
2019-06-10T11:15:26.984Z,3.92
2019-06-10T11:17:55.137Z,3.50
2019-06-10T11:20:22.558Z,1.60
2019-06-10T11:22:49.608Z,2.12
2019-06-10T11:25:15.892Z,2.35
2019-06-10T11:27:43.156Z,2.75
2019-06-10T11:30:12.277Z,5.25
2019-06-10T11:32:38.085Z,4.53
2019-06-10T11:35:04.890Z,2.65
2019-06-10T11:37:31.314Z,3.77
2019-06-10T11:39:57.514Z,2.90
2019-06-10T11:42:23.641Z,3.40
2019-06-10T11:44:51.239Z,3.08
2019-06-10T11:47:17.716Z,12.28
2019-06-10T11:49:43.855Z,12.68
2019-06-10T11:52:12.445Z,3.42
2019-06-10T11:54:53.757Z,3.60
2019-06-10T11:57:06.057Z,3.33
2019-06-10T11:59:32.771Z,3.47
2019-06-10T12:02:01.708Z,4.35
2019-06-10T12:04:27.163Z,3.70
2019-06-10T12:06:53.258Z,5.22
2019-06-10T12:09:20.749Z,3.37
2019-06-10T12:11:49.048Z,2.15
2019-06-10T12:14:15.551Z,2.87
2019-06-10T12:19:09.618Z,2.37
2019-06-10T12:21:35.739Z,2.95
2019-06-10T12:24:02.864Z,2.58
2019-06-10T12:26:29.124Z,2.47
2019-06-10T12:28:58.755Z,1.67
2019-06-10T12:31:23.412Z,2.67
2019-06-10T12:33:51.104Z,2.72
2019-06-10T12:36:17.770Z,2.83
2019-06-10T12:38:43.963Z,1.87
2019-06-10T12:41:13.568Z,3.47
2019-06-10T12:43:38.161Z,2.95
2019-06-10T12:46:05.908Z,4.60
2019-06-10T12:48:34.059Z,3.62
2019-06-10T12:51:01.688Z,3.58
2019-06-10T12:53:28.287Z,1.52
2019-06-10T12:55:55.876Z,2.98
2019-06-10T12:58:22.740Z,2.20
2019-06-10T13:00:49.471Z,1.75
2019-06-10T13:03:15.981Z,2.33
2019-06-10T13:05:43.704Z,1.82
2019-06-10T13:08:13.292Z,1.02
2019-06-10T13:10:42.979Z,2.10
2019-06-10T13:13:09.268Z,1.72
2019-06-10T13:15:36.015Z,2.20
2019-06-10T13:18:06.142Z,1.72
2019-06-10T13:20:32.179Z,1.47
2019-06-10T13:22:58.230Z,1.52
2019-06-10T13:25:24.467Z,1.98
2019-06-10T13:27:51.819Z,1.37
2019-06-10T13:30:18.610Z,2.22
2019-06-10T13:32:44.766Z,2.25
2019-06-10T13:35:12.465Z,3.90
2019-06-10T13:37:38.816Z,2.75
2019-06-10T13:40:08.579Z,2.20
2019-06-10T13:42:36.866Z,2.35
2019-06-10T13:45:09.802Z,1.77
2019-06-10T13:47:36.725Z,2.37
2019-06-10T13:50:08.159Z,2.65
2019-06-10T13:52:33.147Z,3.67
2019-06-10T13:55:00.644Z,2.60
2019-06-10T13:57:27.369Z,2.55
2019-06-10T13:59:53.459Z,3.42
2019-06-10T14:02:19.587Z,1.65
2019-06-10T14:04:45.784Z,3.20
2019-06-10T14:07:16.916Z,2.72
2019-06-10T14:09:39.906Z,2.50
2019-06-10T14:12:06.104Z,2.42
2019-06-10T14:14:33.317Z,1.80
2019-06-10T14:16:59.625Z,2.27
2019-06-10T14:19:26.229Z,2.33
2019-06-10T14:21:52.390Z,3.08
2019-06-10T14:24:18.499Z,1.85
2019-06-10T14:26:45.539Z,3.40
2019-06-10T14:29:15.619Z,4.30
2019-06-10T14:31:44.079Z,2.08
2019-06-10T14:34:10.626Z,2.62
2019-06-10T14:36:36.056Z,2.90
2019-06-10T14:39:06.154Z,2.60
2019-06-10T14:41:32.812Z,2.90
2019-06-10T14:43:59.684Z,2.50
2019-06-10T14:46:25.858Z,2.17
2019-06-10T14:48:58.377Z,2.15
2019-06-10T14:51:24.596Z,2.00
2019-06-10T14:53:50.697Z,3.40
2019-06-10T14:56:19.547Z,1.72
2019-06-10T14:58:44.804Z,1.95
2019-06-10T15:01:13.464Z,3.55
2019-06-10T15:03:39.370Z,1.80
2019-06-10T15:06:05.842Z,2.08
2019-06-10T15:08:39.041Z,2.70
2019-06-10T15:13:32.751Z,2.22
2019-06-10T15:15:59.147Z,2.33
2019-06-10T15:18:25.861Z,2.40
2019-06-10T15:20:53.517Z,2.40
2019-06-10T15:23:20.997Z,2.35
2019-06-10T15:26:32.668Z,3.02
2019-06-10T15:28:58.936Z,2.60
2019-06-10T15:31:25.002Z,2.02
2019-06-10T15:33:52.492Z,2.40
2019-06-10T15:36:19.468Z,1.72
2019-06-10T15:38:45.987Z,2.85
2019-06-10T15:41:16.045Z,3.62
2019-06-10T15:43:42.287Z,3.25
2019-06-10T15:46:08.299Z,2.85
2019-06-10T15:48:34.379Z,2.92
2019-06-10T15:51:02.826Z,4.03
2019-06-10T15:53:28.623Z,4.50
2019-06-10T15:56:13.127Z,4.78
2019-06-10T15:58:25.774Z,3.20
2019-06-10T16:00:53.096Z,3.92
2019-06-10T16:03:19.344Z,4.75
2019-06-10T16:05:46.679Z,6.15
2019-06-10T16:08:14.386Z,4.12
2019-06-10T16:10:42.866Z,4.12
2019-06-10T16:13:08.834Z,3.42
2019-06-10T16:15:35.060Z,1.95
2019-06-10T16:18:02.818Z,3.00
2019-06-10T16:20:29.138Z,4.70
2019-06-10T16:22:55.256Z,2.33
2019-06-10T16:25:25.168Z,3.55
2019-06-10T16:27:51.773Z,3.98
2019-06-10T16:30:18.187Z,5.80
2019-06-10T16:32:46.499Z,4.45
2019-06-10T16:35:14.670Z,2.70
2019-06-10T16:37:42.247Z,8.30
2019-06-10T16:40:09.218Z,3.27
2019-06-10T16:42:35.510Z,2.62
2019-06-10T16:45:02.523Z,3.33
2019-06-10T16:47:29.728Z,3.10
2019-06-10T16:49:57.635Z,3.85
2019-06-10T16:52:25.630Z,3.33
2019-06-10T16:54:52.639Z,5.97
2019-06-10T16:57:19.726Z,3.17
2019-06-10T16:59:46.034Z,5.35
2019-06-10T17:02:12.762Z,4.10
2019-06-10T17:04:39.055Z,3.17
2019-06-10T17:07:05.155Z,2.85
2019-06-10T17:09:32.817Z,2.50
2019-06-10T17:11:59.292Z,4.03
2019-06-10T17:14:27.459Z,2.52
2019-06-10T17:16:53.618Z,2.35
2019-06-10T17:19:21.254Z,2.55
2019-06-10T17:21:47.815Z,1.90
2019-06-10T17:24:14.067Z,1.85
2019-06-10T17:26:42.414Z,2.02
2019-06-10T17:29:08.564Z,2.40
2019-06-10T17:31:35.281Z,2.00
2019-06-10T17:34:02.685Z,2.67
2019-06-10T17:36:35.155Z,3.58
2019-06-10T17:39:00.005Z,2.42
2019-06-10T17:41:29.337Z,2.37
2019-06-10T17:43:54.244Z,1.90
2019-06-10T17:46:21.772Z,1.47
2019-06-10T17:48:48.356Z,1.30
2019-06-10T17:51:14.574Z,2.55
2019-06-10T17:53:42.679Z,1.40
2019-06-10T17:56:08.737Z,1.87
2019-06-10T17:58:49.991Z,1.95
2019-06-10T18:01:04.012Z,1.40
2019-06-10T18:03:31.344Z,3.67
2019-06-10T18:05:57.770Z,2.17
2019-06-10T18:08:24.385Z,2.22
2019-06-10T18:10:53.507Z,2.22
2019-06-10T18:13:22.498Z,1.50
2019-06-10T18:15:47.927Z,1.95
2019-06-10T18:18:14.247Z,3.67
2019-06-10T18:20:43.398Z,2.65
2019-06-10T18:23:13.274Z,2.65
2019-06-10T18:25:38.397Z,2.33
2019-06-10T18:28:04.500Z,2.62
2019-06-10T18:30:34.643Z,2.30
2019-06-10T18:32:58.784Z,1.72
2019-06-10T18:35:25.825Z,2.92
2019-06-10T18:37:52.920Z,1.50
2019-06-10T18:40:19.416Z,2.65
2019-06-10T18:42:45.740Z,1.70
2019-06-10T18:45:12.981Z,2.25
2019-06-10T18:47:39.485Z,2.35
2019-06-10T18:50:07.598Z,2.30
2019-06-10T18:52:33.757Z,2.58
2019-06-10T18:54:59.836Z,2.75
2019-06-10T18:57:26.112Z,2.00
2019-06-10T18:59:52.374Z,2.52
2019-06-10T19:02:18.607Z,3.27
2019-06-10T19:04:44.789Z,2.92
2019-06-10T19:07:10.895Z,2.52
2019-06-10T19:09:39.180Z,2.20
2019-06-10T19:12:05.237Z,2.33
2019-06-10T19:14:33.582Z,2.05
2019-06-10T19:16:59.491Z,1.98
2019-06-10T19:19:25.622Z,2.52
2019-06-10T19:22:02.778Z,2.67
2019-06-10T19:24:19.736Z,3.52
2019-06-10T19:26:48.544Z,2.95
2019-06-10T19:29:29.578Z,3.17
2019-06-10T19:31:45.930Z,2.70
2019-06-10T19:34:13.077Z,3.33
2019-06-10T19:36:39.668Z,1.87
2019-06-10T19:39:06.374Z,2.12
2019-06-10T19:41:34.879Z,4.05
2019-06-10T19:44:02.517Z,2.72
2019-06-10T19:46:28.622Z,2.08
2019-06-10T19:48:59.460Z,2.77
2019-06-10T19:51:23.267Z,2.37
2019-06-10T19:53:49.488Z,3.60
2019-06-10T19:56:15.745Z,5.00
2019-06-10T19:58:43.429Z,5.20
2019-06-10T20:01:09.923Z,7.90
2019-06-10T20:03:36.031Z,8.60
2019-06-10T20:06:03.106Z,8.25
2019-06-10T20:08:29.405Z,7.37
2019-06-10T20:10:55.509Z,8.13
2019-06-10T20:13:23.068Z,10.43
2019-06-10T20:15:52.613Z,11.60
2019-06-10T20:18:19.355Z,7.95
2019-06-10T20:20:47.048Z,7.92
2019-06-10T20:23:13.460Z,7.00
2019-06-10T20:25:41.055Z,5.75
2019-06-10T20:28:07.739Z,5.83
2019-06-10T20:30:33.928Z,5.08
2019-06-10T20:33:03.039Z,4.87
2019-06-10T20:35:28.038Z,2.62
2019-06-10T20:37:54.332Z,3.00
2019-06-10T20:40:20.748Z,2.50
2019-06-10T20:42:46.857Z,3.37
2019-06-10T20:45:13.755Z,2.37
2019-06-10T20:47:42.635Z,4.25
2019-06-10T20:50:08.446Z,2.12
2019-06-10T20:52:34.684Z,2.60
2019-06-10T20:55:02.992Z,5.33
2019-06-10T20:57:29.013Z,3.85
2019-06-10T21:00:00.132Z,5.78
2019-06-10T21:02:27.087Z,3.30
2019-06-10T21:04:54.382Z,2.80
2019-06-10T21:07:23.176Z,2.60
2019-06-10T21:09:53.428Z,2.80
2019-06-10T21:12:22.094Z,3.15
2019-06-10T21:14:48.447Z,2.95
2019-06-10T21:17:14.742Z,2.95
2019-06-10T21:19:43.148Z,3.02
2019-06-10T21:22:08.838Z,3.42
2019-06-10T21:24:34.925Z,2.95
2019-06-10T21:27:03.430Z,3.65
2019-06-10T21:29:29.568Z,3.33
2019-06-10T21:31:55.732Z,3.40
2019-06-10T21:34:22.486Z,3.33
2019-06-10T21:36:49.423Z,3.90
2019-06-10T21:39:15.790Z,3.22
2019-06-10T21:41:43.453Z,2.62
2019-06-10T21:44:09.991Z,3.98
2019-06-10T21:46:36.175Z,4.83
2019-06-10T21:49:02.561Z,3.50
2019-06-10T21:51:31.500Z,3.22
2019-06-10T21:53:56.659Z,4.58
2019-06-10T21:56:22.808Z,3.20
2019-06-10T21:58:48.959Z,4.25
2019-06-10T22:01:17.116Z,4.37
2019-06-10T22:03:47.122Z,3.62
2019-06-10T22:06:12.363Z,2.45
2019-06-10T22:08:38.536Z,4.05
2019-06-10T22:11:04.661Z,4.53
2019-06-10T22:13:32.816Z,2.37
2019-06-10T22:15:58.845Z,3.67
2019-06-10T22:18:25.571Z,2.90
2019-06-10T22:20:55.646Z,3.60
2019-06-10T22:23:19.675Z,2.85
2019-06-10T22:25:46.809Z,3.80
2019-06-10T22:28:13.138Z,3.83
2019-06-10T22:30:39.516Z,4.28
2019-06-10T22:33:05.700Z,4.50
2019-06-10T22:35:31.804Z,4.40
2019-06-10T22:37:57.942Z,4.08
2019-06-10T22:40:24.050Z,5.67
2019-06-10T22:42:52.490Z,4.00
2019-06-10T22:45:18.218Z,4.12
2019-06-10T22:47:44.310Z,4.95
2019-06-10T22:50:12.579Z,7.47
2019-06-10T22:52:38.587Z,6.00
2019-06-10T22:55:07.996Z,6.15
2019-06-10T22:57:36.151Z,8.08
2019-06-10T23:00:04.881Z,9.15
2019-06-10T23:02:33.861Z,6.78
2019-06-10T23:05:05.025Z,4.95
2019-06-10T23:07:28.075Z,7.12
2019-06-10T23:09:55.976Z,6.35
2019-06-10T23:12:22.247Z,6.37
2019-06-10T23:14:48.638Z,4.62
2019-06-10T23:17:14.884Z,5.35
2019-06-10T23:19:42.749Z,4.70
2019-06-10T23:22:09.073Z,6.05
2019-06-10T23:24:35.240Z,5.97
2019-06-10T23:27:03.180Z,4.37
2019-06-10T23:29:29.475Z,4.95
2019-06-10T23:32:05.894Z,9.60
2019-06-10T23:34:28.107Z,7.03
2019-06-10T23:36:56.589Z,5.58
2019-06-10T23:39:22.670Z,6.58
2019-06-10T23:41:49.217Z,7.17
2019-06-10T23:44:16.859Z,7.33
2019-06-10T23:46:42.971Z,5.60
2019-06-10T23:49:12.313Z,7.70
2019-06-10T23:51:38.672Z,6.37
2019-06-10T23:54:06.340Z,5.40
2019-06-10T23:56:33.262Z,6.15
2019-06-10T23:59:00.381Z,6.45
